sensor_id;sensor_type;location;lat;lon;timestamp;P1;durP1;ratioP1;P2;durP2;ratioP2
58123;SDS011;46725;48.068;20.832;2022-12-10T00:01:26;41.72;;;22.45;;
58123;SDS011;46725;48.068;20.832;2022-12-10T00:03:52;39.83;;;22.67;;
58123;SDS011;46725;48.068;20.832;2022-12-10T00:06:19;45.33;;;23.33;;
58123;SDS011;46725;48.068;20.832;2022-12-10T00:08:45;42.97;;;23.90;;
58123;SDS011;46725;48.068;20.832;2022-12-10T00:11:13;41.25;;;24.05;;
58123;SDS011;46725;48.068;20.832;2022-12-10T00:13:39;40.17;;;22.92;;
58123;SDS011;46725;48.068;20.832;2022-12-10T00:16:06;50.53;;;24.30;;
58123;SDS011;46725;48.068;20.832;2022-12-10T00:18:33;43.75;;;24.23;;
58123;SDS011;46725;48.068;20.832;2022-12-10T00:21:01;52.58;;;27.63;;
58123;SDS011;46725;48.068;20.832;2022-12-10T00:23:28;52.38;;;28.13;;
58123;SDS011;46725;48.068;20.832;2022-12-10T00:26:01;64.05;;;32.70;;
58123;SDS011;46725;48.068;20.832;2022-12-10T00:28:28;63.65;;;33.72;;
58123;SDS011;46725;48.068;20.832;2022-12-10T00:30:54;62.03;;;32.47;;
58123;SDS011;46725;48.068;20.832;2022-12-10T00:33:20;56.05;;;29.30;;
58123;SDS011;46725;48.068;20.832;2022-12-10T00:35:46;52.38;;;29.13;;
58123;SDS011;46725;48.068;20.832;2022-12-10T00:38:12;50.22;;;28.20;;
58123;SDS011;46725;48.068;20.832;2022-12-10T00:40:38;49.10;;;26.30;;
58123;SDS011;46725;48.068;20.832;2022-12-10T00:43:04;51.63;;;25.58;;
58123;SDS011;46725;48.068;20.832;2022-12-10T00:45:30;55.78;;;26.63;;
58123;SDS011;46725;48.068;20.832;2022-12-10T00:47:56;57.63;;;28.05;;
58123;SDS011;46725;48.068;20.832;2022-12-10T00:50:22;58.78;;;27.40;;
58123;SDS011;46725;48.068;20.832;2022-12-10T00:52:48;44.05;;;23.95;;
58123;SDS011;46725;48.068;20.832;2022-12-10T00:55:14;46.38;;;24.17;;
58123;SDS011;46725;48.068;20.832;2022-12-10T00:57:40;44.63;;;25.20;;
58123;SDS011;46725;48.068;20.832;2022-12-10T01:00:07;42.00;;;22.88;;
58123;SDS011;46725;48.068;20.832;2022-12-10T01:02:33;50.80;;;24.48;;
58123;SDS011;46725;48.068;20.832;2022-12-10T01:04:59;43.25;;;24.15;;
58123;SDS011;46725;48.068;20.832;2022-12-10T01:07:25;46.47;;;24.65;;
58123;SDS011;46725;48.068;20.832;2022-12-10T01:09:51;46.28;;;24.25;;
58123;SDS011;46725;48.068;20.832;2022-12-10T01:12:17;48.50;;;25.98;;
58123;SDS011;46725;48.068;20.832;2022-12-10T01:14:43;44.28;;;25.17;;
58123;SDS011;46725;48.068;20.832;2022-12-10T01:17:09;53.88;;;27.00;;
58123;SDS011;46725;48.068;20.832;2022-12-10T01:19:35;56.92;;;27.90;;
58123;SDS011;46725;48.068;20.832;2022-12-10T01:22:01;52.63;;;26.52;;
58123;SDS011;46725;48.068;20.832;2022-12-10T01:24:28;51.88;;;26.73;;
58123;SDS011;46725;48.068;20.832;2022-12-10T01:26:54;53.50;;;26.40;;
58123;SDS011;46725;48.068;20.832;2022-12-10T01:29:21;49.25;;;25.17;;
58123;SDS011;46725;48.068;20.832;2022-12-10T01:31:49;50.30;;;24.95;;
58123;SDS011;46725;48.068;20.832;2022-12-10T01:34:16;55.53;;;28.05;;
58123;SDS011;46725;48.068;20.832;2022-12-10T01:36:43;51.80;;;27.02;;
58123;SDS011;46725;48.068;20.832;2022-12-10T01:39:10;48.78;;;27.02;;
58123;SDS011;46725;48.068;20.832;2022-12-10T01:41:38;51.78;;;26.35;;
58123;SDS011;46725;48.068;20.832;2022-12-10T01:46:34;50.85;;;25.50;;
58123;SDS011;46725;48.068;20.832;2022-12-10T01:49:01;48.05;;;24.67;;
58123;SDS011;46725;48.068;20.832;2022-12-10T01:51:28;46.35;;;23.52;;
58123;SDS011;46725;48.068;20.832;2022-12-10T01:53:54;44.67;;;23.52;;
58123;SDS011;46725;48.068;20.832;2022-12-10T01:56:21;42.88;;;24.25;;
58123;SDS011;46725;48.068;20.832;2022-12-10T01:58:48;46.67;;;23.95;;
58123;SDS011;46725;48.068;20.832;2022-12-10T02:06:42;45.50;;;23.70;;
58123;SDS011;46725;48.068;20.832;2022-12-10T02:09:21;39.53;;;21.42;;
58123;SDS011;46725;48.068;20.832;2022-12-10T02:11:55;46.13;;;22.13;;
58123;SDS011;46725;48.068;20.832;2022-12-10T02:14:29;42.03;;;21.52;;
58123;SDS011;46725;48.068;20.832;2022-12-10T02:17:01;41.65;;;22.10;;
58123;SDS011;46725;48.068;20.832;2022-12-10T02:21:59;43.53;;;22.10;;
58123;SDS011;46725;48.068;20.832;2022-12-10T02:24:30;39.55;;;21.38;;
58123;SDS011;46725;48.068;20.832;2022-12-10T02:27:00;44.42;;;22.77;;
58123;SDS011;46725;48.068;20.832;2022-12-10T02:29:27;38.70;;;20.75;;
58123;SDS011;46725;48.068;20.832;2022-12-10T02:34:40;35.08;;;19.77;;
58123;SDS011;46725;48.068;20.832;2022-12-10T02:37:21;33.92;;;19.73;;
58123;SDS011;46725;48.068;20.832;2022-12-10T02:39:48;40.25;;;21.13;;
58123;SDS011;46725;48.068;20.832;2022-12-10T02:42:15;42.72;;;21.20;;
58123;SDS011;46725;48.068;20.832;2022-12-10T02:44:42;41.92;;;22.13;;
58123;SDS011;46725;48.068;20.832;2022-12-10T02:47:08;43.05;;;22.02;;
58123;SDS011;46725;48.068;20.832;2022-12-10T02:49:35;46.15;;;22.65;;
58123;SDS011;46725;48.068;20.832;2022-12-10T02:52:06;43.95;;;21.85;;
58123;SDS011;46725;48.068;20.832;2022-12-10T02:57:05;45.13;;;22.83;;
58123;SDS011;46725;48.068;20.832;2022-12-10T02:59:37;47.78;;;22.73;;
58123;SDS011;46725;48.068;20.832;2022-12-10T03:05:11;46.58;;;23.10;;
58123;SDS011;46725;48.068;20.832;2022-12-10T03:08:03;51.97;;;24.80;;
58123;SDS011;46725;48.068;20.832;2022-12-10T03:13:04;53.63;;;26.35;;
58123;SDS011;46725;48.068;20.832;2022-12-10T03:15:33;60.25;;;27.65;;
58123;SDS011;46725;48.068;20.832;2022-12-10T03:18:00;53.80;;;26.08;;
58123;SDS011;46725;48.068;20.832;2022-12-10T03:20:28;60.25;;;27.10;;
58123;SDS011;46725;48.068;20.832;2022-12-10T03:22:55;55.50;;;26.60;;
58123;SDS011;46725;48.068;20.832;2022-12-10T03:25:23;61.35;;;28.75;;
58123;SDS011;46725;48.068;20.832;2022-12-10T03:27:50;65.45;;;30.17;;
58123;SDS011;46725;48.068;20.832;2022-12-10T03:30:17;62.42;;;27.63;;
58123;SDS011;46725;48.068;20.832;2022-12-10T03:32:43;64.30;;;29.50;;
58123;SDS011;46725;48.068;20.832;2022-12-10T03:35:11;59.47;;;26.52;;
58123;SDS011;46725;48.068;20.832;2022-12-10T03:37:37;63.05;;;28.42;;
58123;SDS011;46725;48.068;20.832;2022-12-10T03:40:04;57.22;;;26.55;;
58123;SDS011;46725;48.068;20.832;2022-12-10T03:42:31;62.15;;;27.10;;
58123;SDS011;46725;48.068;20.832;2022-12-10T03:44:57;67.47;;;29.73;;
58123;SDS011;46725;48.068;20.832;2022-12-10T03:47:23;63.25;;;30.27;;
58123;SDS011;46725;48.068;20.832;2022-12-10T03:49:50;69.95;;;32.10;;
58123;SDS011;46725;48.068;20.832;2022-12-10T03:52:16;58.45;;;26.40;;
58123;SDS011;46725;48.068;20.832;2022-12-10T03:54:42;63.95;;;28.83;;
58123;SDS011;46725;48.068;20.832;2022-12-10T03:57:08;59.90;;;27.52;;
58123;SDS011;46725;48.068;20.832;2022-12-10T03:59:34;59.90;;;28.50;;
58123;SDS011;46725;48.068;20.832;2022-12-10T04:02:00;61.10;;;28.15;;
58123;SDS011;46725;48.068;20.832;2022-12-10T04:04:26;52.38;;;26.80;;
58123;SDS011;46725;48.068;20.832;2022-12-10T04:06:52;55.38;;;26.52;;
58123;SDS011;46725;48.068;20.832;2022-12-10T04:09:18;61.13;;;28.48;;
58123;SDS011;46725;48.068;20.832;2022-12-10T04:11:44;55.85;;;27.30;;
58123;SDS011;46725;48.068;20.832;2022-12-10T04:14:11;73.28;;;31.80;;
58123;SDS011;46725;48.068;20.832;2022-12-10T04:16:56;56.42;;;25.05;;
58123;SDS011;46725;48.068;20.832;2022-12-10T04:19:22;51.78;;;24.13;;
58123;SDS011;46725;48.068;20.832;2022-12-10T04:21:48;62.88;;;28.90;;
58123;SDS011;46725;48.068;20.832;2022-12-10T04:24:34;53.63;;;25.33;;
58123;SDS011;46725;48.068;20.832;2022-12-10T04:27:23;49.83;;;24.67;;
58123;SDS011;46725;48.068;20.832;2022-12-10T04:29:51;56.28;;;25.98;;
58123;SDS011;46725;48.068;20.832;2022-12-10T04:32:17;55.88;;;26.52;;
58123;SDS011;46725;48.068;20.832;2022-12-10T04:34:43;50.05;;;24.58;;
58123;SDS011;46725;48.068;20.832;2022-12-10T04:37:09;45.00;;;21.83;;
58123;SDS011;46725;48.068;20.832;2022-12-10T04:39:38;51.47;;;23.08;;
58123;SDS011;46725;48.068;20.832;2022-12-10T04:42:05;48.25;;;21.65;;
58123;SDS011;46725;48.068;20.832;2022-12-10T04:44:31;51.05;;;22.95;;
58123;SDS011;46725;48.068;20.832;2022-12-10T04:46:57;46.45;;;22.38;;
58123;SDS011;46725;48.068;20.832;2022-12-10T04:49:24;48.65;;;22.02;;
58123;SDS011;46725;48.068;20.832;2022-12-10T04:51:50;47.38;;;22.35;;
58123;SDS011;46725;48.068;20.832;2022-12-10T04:54:17;45.50;;;22.52;;
58123;SDS011;46725;48.068;20.832;2022-12-10T04:56:43;43.80;;;22.02;;
58123;SDS011;46725;48.068;20.832;2022-12-10T04:59:10;46.47;;;23.17;;
58123;SDS011;46725;48.068;20.832;2022-12-10T05:01:36;45.67;;;23.63;;
58123;SDS011;46725;48.068;20.832;2022-12-10T05:04:03;41.55;;;22.40;;
58123;SDS011;46725;48.068;20.832;2022-12-10T05:06:29;36.80;;;20.63;;
58123;SDS011;46725;48.068;20.832;2022-12-10T05:08:56;36.72;;;20.20;;
58123;SDS011;46725;48.068;20.832;2022-12-10T05:11:22;38.67;;;19.83;;
58123;SDS011;46725;48.068;20.832;2022-12-10T05:13:49;40.90;;;21.38;;
58123;SDS011;46725;48.068;20.832;2022-12-10T05:16:16;42.67;;;21.77;;
58123;SDS011;46725;48.068;20.832;2022-12-10T05:18:42;39.08;;;22.10;;
58123;SDS011;46725;48.068;20.832;2022-12-10T05:21:13;38.45;;;20.25;;
58123;SDS011;46725;48.068;20.832;2022-12-10T05:23:40;41.55;;;19.60;;
58123;SDS011;46725;48.068;20.832;2022-12-10T05:26:16;37.58;;;19.77;;
58123;SDS011;46725;48.068;20.832;2022-12-10T05:28:44;45.20;;;21.02;;
58123;SDS011;46725;48.068;20.832;2022-12-10T05:33:39;52.22;;;27.10;;
58123;SDS011;46725;48.068;20.832;2022-12-10T05:36:05;53.33;;;26.42;;
58123;SDS011;46725;48.068;20.832;2022-12-10T05:38:32;53.17;;;25.33;;
58123;SDS011;46725;48.068;20.832;2022-12-10T05:41:04;47.80;;;22.45;;
58123;SDS011;46725;48.068;20.832;2022-12-10T05:43:31;51.97;;;25.17;;
58123;SDS011;46725;48.068;20.832;2022-12-10T05:46:04;44.03;;;22.63;;
58123;SDS011;46725;48.068;20.832;2022-12-10T05:48:30;39.47;;;19.80;;
58123;SDS011;46725;48.068;20.832;2022-12-10T05:50:56;38.25;;;19.92;;
58123;SDS011;46725;48.068;20.832;2022-12-10T05:53:23;38.75;;;20.65;;
58123;SDS011;46725;48.068;20.832;2022-12-10T05:55:49;43.45;;;22.25;;
58123;SDS011;46725;48.068;20.832;2022-12-10T05:58:15;43.55;;;21.13;;
58123;SDS011;46725;48.068;20.832;2022-12-10T06:00:41;40.97;;;21.13;;
58123;SDS011;46725;48.068;20.832;2022-12-10T06:03:07;48.25;;;22.13;;
58123;SDS011;46725;48.068;20.832;2022-12-10T06:05:37;50.90;;;25.05;;
58123;SDS011;46725;48.068;20.832;2022-12-10T06:08:03;58.90;;;29.70;;
58123;SDS011;46725;48.068;20.832;2022-12-10T06:10:29;54.90;;;27.40;;
58123;SDS011;46725;48.068;20.832;2022-12-10T06:12:55;79.93;;;40.40;;
58123;SDS011;46725;48.068;20.832;2022-12-10T06:15:22;57.35;;;28.80;;
58123;SDS011;46725;48.068;20.832;2022-12-10T06:17:48;53.22;;;27.42;;
58123;SDS011;46725;48.068;20.832;2022-12-10T06:20:14;64.63;;;34.38;;
58123;SDS011;46725;48.068;20.832;2022-12-10T06:22:40;80.80;;;41.67;;
58123;SDS011;46725;48.068;20.832;2022-12-10T06:25:06;80.10;;;43.10;;
58123;SDS011;46725;48.068;20.832;2022-12-10T06:27:32;66.85;;;34.85;;
58123;SDS011;46725;48.068;20.832;2022-12-10T06:29:58;60.92;;;27.40;;
58123;SDS011;46725;48.068;20.832;2022-12-10T06:32:24;53.88;;;25.48;;
58123;SDS011;46725;48.068;20.832;2022-12-10T06:34:50;45.63;;;23.02;;
58123;SDS011;46725;48.068;20.832;2022-12-10T06:37:16;42.60;;;22.30;;
58123;SDS011;46725;48.068;20.832;2022-12-10T06:39:43;42.50;;;22.48;;
58123;SDS011;46725;48.068;20.832;2022-12-10T06:42:09;39.90;;;21.52;;
58123;SDS011;46725;48.068;20.832;2022-12-10T06:44:35;37.65;;;19.50;;
58123;SDS011;46725;48.068;20.832;2022-12-10T06:47:01;35.75;;;18.48;;
58123;SDS011;46725;48.068;20.832;2022-12-10T06:49:27;41.05;;;19.70;;
58123;SDS011;46725;48.068;20.832;2022-12-10T06:51:53;42.83;;;19.83;;
58123;SDS011;46725;48.068;20.832;2022-12-10T06:54:19;37.78;;;19.35;;
58123;SDS011;46725;48.068;20.832;2022-12-10T06:56:45;31.35;;;17.25;;
58123;SDS011;46725;48.068;20.832;2022-12-10T06:59:11;30.40;;;16.38;;
58123;SDS011;46725;48.068;20.832;2022-12-10T07:01:37;40.38;;;17.85;;
58123;SDS011;46725;48.068;20.832;2022-12-10T07:04:04;32.95;;;17.25;;
58123;SDS011;46725;48.068;20.832;2022-12-10T07:06:31;34.53;;;17.55;;
58123;SDS011;46725;48.068;20.832;2022-12-10T07:08:57;30.75;;;16.27;;
58123;SDS011;46725;48.068;20.832;2022-12-10T07:11:24;29.98;;;15.60;;
58123;SDS011;46725;48.068;20.832;2022-12-10T07:13:50;31.08;;;16.38;;
58123;SDS011;46725;48.068;20.832;2022-12-10T07:16:18;26.20;;;14.00;;
58123;SDS011;46725;48.068;20.832;2022-12-10T07:18:45;27.33;;;14.48;;
58123;SDS011;46725;48.068;20.832;2022-12-10T07:23:43;30.73;;;15.98;;
58123;SDS011;46725;48.068;20.832;2022-12-10T07:26:09;29.38;;;15.80;;
58123;SDS011;46725;48.068;20.832;2022-12-10T07:28:35;31.27;;;15.45;;
58123;SDS011;46725;48.068;20.832;2022-12-10T07:31:02;33.33;;;15.38;;
58123;SDS011;46725;48.068;20.832;2022-12-10T07:33:28;31.77;;;15.88;;
58123;SDS011;46725;48.068;20.832;2022-12-10T07:35:54;33.45;;;17.33;;
58123;SDS011;46725;48.068;20.832;2022-12-10T07:38:21;30.17;;;14.45;;
58123;SDS011;46725;48.068;20.832;2022-12-10T07:40:47;28.67;;;15.55;;
58123;SDS011;46725;48.068;20.832;2022-12-10T07:43:13;30.88;;;16.42;;
58123;SDS011;46725;48.068;20.832;2022-12-10T07:45:39;32.67;;;15.95;;
58123;SDS011;46725;48.068;20.832;2022-12-10T07:48:05;31.77;;;15.90;;
58123;SDS011;46725;48.068;20.832;2022-12-10T07:50:31;28.83;;;14.68;;
58123;SDS011;46725;48.068;20.832;2022-12-10T07:52:57;27.17;;;14.07;;
58123;SDS011;46725;48.068;20.832;2022-12-10T07:55:23;29.05;;;14.57;;
58123;SDS011;46725;48.068;20.832;2022-12-10T07:57:50;30.85;;;15.15;;
58123;SDS011;46725;48.068;20.832;2022-12-10T08:00:16;29.77;;;15.38;;
58123;SDS011;46725;48.068;20.832;2022-12-10T08:02:42;46.70;;;25.95;;
58123;SDS011;46725;48.068;20.832;2022-12-10T08:05:08;38.33;;;22.15;;
58123;SDS011;46725;48.068;20.832;2022-12-10T08:07:34;31.27;;;17.30;;
58123;SDS011;46725;48.068;20.832;2022-12-10T08:10:00;28.33;;;15.13;;
58123;SDS011;46725;48.068;20.832;2022-12-10T08:12:26;35.38;;;16.75;;
58123;SDS011;46725;48.068;20.832;2022-12-10T08:14:52;33.15;;;16.20;;
58123;SDS011;46725;48.068;20.832;2022-12-10T08:17:18;32.35;;;15.57;;
58123;SDS011;46725;48.068;20.832;2022-12-10T08:19:44;32.80;;;17.17;;
58123;SDS011;46725;48.068;20.832;2022-12-10T08:22:10;33.90;;;15.85;;
58123;SDS011;46725;48.068;20.832;2022-12-10T08:24:36;35.92;;;17.48;;
58123;SDS011;46725;48.068;20.832;2022-12-10T08:27:03;33.05;;;17.88;;
58123;SDS011;46725;48.068;20.832;2022-12-10T08:29:29;27.65;;;15.18;;
58123;SDS011;46725;48.068;20.832;2022-12-10T08:31:55;31.05;;;16.90;;
58123;SDS011;46725;48.068;20.832;2022-12-10T08:34:21;32.42;;;17.23;;
58123;SDS011;46725;48.068;20.832;2022-12-10T08:36:47;34.38;;;17.13;;
58123;SDS011;46725;48.068;20.832;2022-12-10T08:39:13;42.40;;;19.23;;
58123;SDS011;46725;48.068;20.832;2022-12-10T08:41:41;34.05;;;17.35;;
58123;SDS011;46725;48.068;20.832;2022-12-10T08:44:07;36.53;;;18.23;;
58123;SDS011;46725;48.068;20.832;2022-12-10T08:46:34;34.88;;;18.35;;
58123;SDS011;46725;48.068;20.832;2022-12-10T08:49:00;36.42;;;18.38;;
58123;SDS011;46725;48.068;20.832;2022-12-10T08:51:26;36.55;;;19.33;;
58123;SDS011;46725;48.068;20.832;2022-12-10T08:53:53;35.50;;;18.55;;
58123;SDS011;46725;48.068;20.832;2022-12-10T08:56:19;36.13;;;19.23;;
58123;SDS011;46725;48.068;20.832;2022-12-10T08:58:45;39.90;;;20.95;;
58123;SDS011;46725;48.068;20.832;2022-12-10T09:01:12;41.33;;;20.77;;
58123;SDS011;46725;48.068;20.832;2022-12-10T09:03:38;39.00;;;20.15;;
58123;SDS011;46725;48.068;20.832;2022-12-10T09:06:05;41.72;;;19.30;;
58123;SDS011;46725;48.068;20.832;2022-12-10T09:08:31;48.63;;;19.67;;
58123;SDS011;46725;48.068;20.832;2022-12-10T09:10:57;38.88;;;18.60;;
58123;SDS011;46725;48.068;20.832;2022-12-10T09:13:23;38.90;;;18.23;;
58123;SDS011;46725;48.068;20.832;2022-12-10T09:15:50;44.05;;;22.70;;
58123;SDS011;46725;48.068;20.832;2022-12-10T09:18:16;35.72;;;20.65;;
58123;SDS011;46725;48.068;20.832;2022-12-10T09:20:43;40.25;;;20.63;;
58123;SDS011;46725;48.068;20.832;2022-12-10T09:23:09;33.85;;;17.38;;
58123;SDS011;46725;48.068;20.832;2022-12-10T09:25:35;33.58;;;18.30;;
58123;SDS011;46725;48.068;20.832;2022-12-10T09:28:01;34.00;;;17.17;;
58123;SDS011;46725;48.068;20.832;2022-12-10T09:30:27;33.20;;;17.55;;
58123;SDS011;46725;48.068;20.832;2022-12-10T09:32:53;35.33;;;17.83;;
58123;SDS011;46725;48.068;20.832;2022-12-10T09:35:19;32.72;;;17.95;;
58123;SDS011;46725;48.068;20.832;2022-12-10T09:37:45;34.58;;;18.77;;
58123;SDS011;46725;48.068;20.832;2022-12-10T09:40:15;36.75;;;19.30;;
58123;SDS011;46725;48.068;20.832;2022-12-10T09:42:50;35.45;;;19.65;;
58123;SDS011;46725;48.068;20.832;2022-12-10T09:45:40;36.63;;;19.88;;
58123;SDS011;46725;48.068;20.832;2022-12-10T09:48:14;29.63;;;16.42;;
58123;SDS011;46725;48.068;20.832;2022-12-10T09:51:05;32.55;;;18.10;;
58123;SDS011;46725;48.068;20.832;2022-12-10T09:53:27;30.33;;;17.98;;
58123;SDS011;46725;48.068;20.832;2022-12-10T09:55:54;31.80;;;16.85;;
58123;SDS011;46725;48.068;20.832;2022-12-10T09:58:21;37.28;;;18.73;;
58123;SDS011;46725;48.068;20.832;2022-12-10T10:00:50;28.02;;;15.60;;
58123;SDS011;46725;48.068;20.832;2022-12-10T10:03:17;26.88;;;15.40;;
58123;SDS011;46725;48.068;20.832;2022-12-10T10:05:48;37.45;;;18.65;;
58123;SDS011;46725;48.068;20.832;2022-12-10T10:08:36;30.83;;;17.52;;
58123;SDS011;46725;48.068;20.832;2022-12-10T10:11:01;32.58;;;17.55;;
58123;SDS011;46725;48.068;20.832;2022-12-10T10:13:42;28.02;;;16.48;;
58123;SDS011;46725;48.068;20.832;2022-12-10T10:16:17;31.17;;;16.38;;
58123;SDS011;46725;48.068;20.832;2022-12-10T10:18:52;29.13;;;13.65;;
58123;SDS011;46725;48.068;20.832;2022-12-10T10:21:24;31.88;;;16.17;;
58123;SDS011;46725;48.068;20.832;2022-12-10T10:23:50;31.08;;;16.63;;
58123;SDS011;46725;48.068;20.832;2022-12-10T10:26:17;27.55;;;16.75;;
58123;SDS011;46725;48.068;20.832;2022-12-10T10:28:43;29.02;;;15.32;;
58123;SDS011;46725;48.068;20.832;2022-12-10T10:31:20;26.63;;;13.63;;
58123;SDS011;46725;48.068;20.832;2022-12-10T10:33:48;22.42;;;12.07;;
58123;SDS011;46725;48.068;20.832;2022-12-10T10:36:15;20.23;;;11.45;;
58123;SDS011;46725;48.068;20.832;2022-12-10T10:38:46;19.65;;;10.75;;
58123;SDS011;46725;48.068;20.832;2022-12-10T10:41:13;16.70;;;10.15;;
58123;SDS011;46725;48.068;20.832;2022-12-10T10:43:40;15.57;;;9.13;;
58123;SDS011;46725;48.068;20.832;2022-12-10T10:48:39;16.25;;;8.35;;
58123;SDS011;46725;48.068;20.832;2022-12-10T10:53:32;17.05;;;9.40;;
58123;SDS011;46725;48.068;20.832;2022-12-10T10:56:06;18.80;;;10.93;;
58123;SDS011;46725;48.068;20.832;2022-12-10T10:58:33;18.02;;;9.95;;
58123;SDS011;46725;48.068;20.832;2022-12-10T11:01:04;18.45;;;9.80;;
58123;SDS011;46725;48.068;20.832;2022-12-10T11:03:32;18.58;;;11.68;;
58123;SDS011;46725;48.068;20.832;2022-12-10T11:05:59;15.73;;;9.02;;
58123;SDS011;46725;48.068;20.832;2022-12-10T11:08:27;16.73;;;9.40;;
58123;SDS011;46725;48.068;20.832;2022-12-10T11:10:56;13.60;;;7.80;;
58123;SDS011;46725;48.068;20.832;2022-12-10T11:13:27;15.25;;;8.10;;
58123;SDS011;46725;48.068;20.832;2022-12-10T11:16:35;12.55;;;7.80;;
58123;SDS011;46725;48.068;20.832;2022-12-10T11:18:59;12.57;;;7.63;;
58123;SDS011;46725;48.068;20.832;2022-12-10T11:21:30;17.65;;;9.23;;
58123;SDS011;46725;48.068;20.832;2022-12-10T11:23:56;12.27;;;7.78;;
58123;SDS011;46725;48.068;20.832;2022-12-10T11:42:08;14.93;;;8.65;;
58123;SDS011;46725;48.068;20.832;2022-12-10T11:47:41;17.23;;;10.85;;
58123;SDS011;46725;48.068;20.832;2022-12-10T11:57:55;17.10;;;10.10;;
58123;SDS011;46725;48.068;20.832;2022-12-10T12:00:25;18.30;;;9.00;;
58123;SDS011;46725;48.068;20.832;2022-12-10T12:13:05;18.40;;;8.73;;
58123;SDS011;46725;48.068;20.832;2022-12-10T12:20:34;19.25;;;10.27;;
58123;SDS011;46725;48.068;20.832;2022-12-10T12:23:04;22.30;;;13.18;;
58123;SDS011;46725;48.068;20.832;2022-12-10T12:25:34;22.15;;;13.55;;
58123;SDS011;46725;48.068;20.832;2022-12-10T12:30:27;16.00;;;10.60;;
58123;SDS011;46725;48.068;20.832;2022-12-10T12:33:01;19.05;;;10.80;;
58123;SDS011;46725;48.068;20.832;2022-12-10T12:35:47;19.80;;;11.48;;
58123;SDS011;46725;48.068;20.832;2022-12-10T12:38:32;18.60;;;11.25;;
58123;SDS011;46725;48.068;20.832;2022-12-10T12:41:05;18.13;;;10.98;;
58123;SDS011;46725;48.068;20.832;2022-12-10T12:46:02;18.80;;;11.57;;
58123;SDS011;46725;48.068;20.832;2022-12-10T12:48:50;21.88;;;12.63;;
58123;SDS011;46725;48.068;20.832;2022-12-10T12:51:28;29.70;;;15.60;;
58123;SDS011;46725;48.068;20.832;2022-12-10T12:53:55;29.88;;;15.88;;
58123;SDS011;46725;48.068;20.832;2022-12-10T13:04:03;25.77;;;14.52;;
58123;SDS011;46725;48.068;20.832;2022-12-10T13:06:31;24.55;;;14.02;;
58123;SDS011;46725;48.068;20.832;2022-12-10T13:11:28;21.73;;;11.55;;
58123;SDS011;46725;48.068;20.832;2022-12-10T13:14:11;20.73;;;11.98;;
58123;SDS011;46725;48.068;20.832;2022-12-10T13:19:22;26.85;;;14.90;;
58123;SDS011;46725;48.068;20.832;2022-12-10T13:27:02;23.30;;;11.82;;
58123;SDS011;46725;48.068;20.832;2022-12-10T13:29:29;16.38;;;10.23;;
58123;SDS011;46725;48.068;20.832;2022-12-10T13:32:13;16.77;;;9.63;;
58123;SDS011;46725;48.068;20.832;2022-12-10T13:34:40;18.30;;;10.32;;
58123;SDS011;46725;48.068;20.832;2022-12-10T13:37:14;16.95;;;10.13;;
58123;SDS011;46725;48.068;20.832;2022-12-10T13:39:50;20.80;;;10.73;;
58123;SDS011;46725;48.068;20.832;2022-12-10T13:45:16;20.05;;;11.55;;
58123;SDS011;46725;48.068;20.832;2022-12-10T13:47:55;17.00;;;9.07;;
58123;SDS011;46725;48.068;20.832;2022-12-10T13:50:44;15.25;;;7.75;;
58123;SDS011;46725;48.068;20.832;2022-12-10T13:58:25;12.93;;;8.10;;
58123;SDS011;46725;48.068;20.832;2022-12-10T14:01:03;17.27;;;8.38;;
58123;SDS011;46725;48.068;20.832;2022-12-10T14:06:16;15.35;;;8.48;;
58123;SDS011;46725;48.068;20.832;2022-12-10T14:11:48;13.13;;;6.97;;
58123;SDS011;46725;48.068;20.832;2022-12-10T14:14:16;13.32;;;7.05;;
58123;SDS011;46725;48.068;20.832;2022-12-10T14:16:47;11.43;;;6.68;;
58123;SDS011;46725;48.068;20.832;2022-12-10T14:19:14;11.45;;;7.47;;
58123;SDS011;46725;48.068;20.832;2022-12-10T14:21:42;15.02;;;7.82;;
58123;SDS011;46725;48.068;20.832;2022-12-10T14:24:28;12.80;;;7.88;;
58123;SDS011;46725;48.068;20.832;2022-12-10T14:26:59;12.50;;;7.63;;
58123;SDS011;46725;48.068;20.832;2022-12-10T14:29:25;15.68;;;8.45;;
58123;SDS011;46725;48.068;20.832;2022-12-10T14:31:51;16.17;;;9.00;;
58123;SDS011;46725;48.068;20.832;2022-12-10T14:34:18;15.50;;;8.52;;
58123;SDS011;46725;48.068;20.832;2022-12-10T14:36:47;14.15;;;8.73;;
58123;SDS011;46725;48.068;20.832;2022-12-10T14:39:14;20.73;;;10.63;;
58123;SDS011;46725;48.068;20.832;2022-12-10T14:41:41;21.17;;;11.13;;
58123;SDS011;46725;48.068;20.832;2022-12-10T14:44:08;16.05;;;9.43;;
58123;SDS011;46725;48.068;20.832;2022-12-10T14:46:36;17.60;;;9.35;;
58123;SDS011;46725;48.068;20.832;2022-12-10T14:49:03;18.00;;;9.68;;
58123;SDS011;46725;48.068;20.832;2022-12-10T14:51:33;16.20;;;9.27;;
58123;SDS011;46725;48.068;20.832;2022-12-10T14:59:01;18.38;;;9.55;;
58123;SDS011;46725;48.068;20.832;2022-12-10T15:01:29;22.27;;;10.85;;
58123;SDS011;46725;48.068;20.832;2022-12-10T15:03:56;17.90;;;10.13;;
58123;SDS011;46725;48.068;20.832;2022-12-10T15:06:24;17.65;;;10.55;;
58123;SDS011;46725;48.068;20.832;2022-12-10T15:08:51;18.08;;;10.55;;
58123;SDS011;46725;48.068;20.832;2022-12-10T15:11:18;18.92;;;11.23;;
58123;SDS011;46725;48.068;20.832;2022-12-10T15:13:46;19.13;;;10.38;;
58123;SDS011;46725;48.068;20.832;2022-12-10T15:16:15;19.98;;;11.13;;
58123;SDS011;46725;48.068;20.832;2022-12-10T15:18:42;19.42;;;11.10;;
58123;SDS011;46725;48.068;20.832;2022-12-10T15:21:11;18.33;;;10.63;;
58123;SDS011;46725;48.068;20.832;2022-12-10T15:23:39;20.33;;;11.38;;
58123;SDS011;46725;48.068;20.832;2022-12-10T15:28:39;27.38;;;13.15;;
58123;SDS011;46725;48.068;20.832;2022-12-10T15:33:59;18.30;;;10.02;;
58123;SDS011;46725;48.068;20.832;2022-12-10T15:36:37;24.15;;;12.07;;
58123;SDS011;46725;48.068;20.832;2022-12-10T15:39:09;17.25;;;9.98;;
58123;SDS011;46725;48.068;20.832;2022-12-10T15:41:43;25.63;;;12.32;;
58123;SDS011;46725;48.068;20.832;2022-12-10T15:46:58;16.90;;;8.95;;
58123;SDS011;46725;48.068;20.832;2022-12-10T15:49:24;16.98;;;8.98;;
58123;SDS011;46725;48.068;20.832;2022-12-10T15:51:50;16.60;;;8.50;;
58123;SDS011;46725;48.068;20.832;2022-12-10T15:54:20;18.38;;;10.00;;
58123;SDS011;46725;48.068;20.832;2022-12-10T15:56:47;14.10;;;8.63;;
58123;SDS011;46725;48.068;20.832;2022-12-10T15:59:13;14.57;;;8.95;;
58123;SDS011;46725;48.068;20.832;2022-12-10T16:01:39;12.65;;;7.90;;
58123;SDS011;46725;48.068;20.832;2022-12-10T16:04:05;13.30;;;7.30;;
58123;SDS011;46725;48.068;20.832;2022-12-10T16:06:31;12.60;;;6.57;;
58123;SDS011;46725;48.068;20.832;2022-12-10T16:08:57;12.73;;;6.88;;
58123;SDS011;46725;48.068;20.832;2022-12-10T16:11:23;12.13;;;6.55;;
58123;SDS011;46725;48.068;20.832;2022-12-10T16:13:53;11.45;;;7.13;;
58123;SDS011;46725;48.068;20.832;2022-12-10T16:16:20;10.45;;;6.47;;
58123;SDS011;46725;48.068;20.832;2022-12-10T16:18:46;10.85;;;7.03;;
58123;SDS011;46725;48.068;20.832;2022-12-10T16:21:12;13.27;;;6.90;;